sensor_id;sensor_type;location;lat;lon;timestamp;temperature;humidity
1800;DHT22;919;48.274;12.292;2022-07-06T00:02:10;16.60;99.90
1800;DHT22;919;48.274;12.292;2022-07-06T00:04:37;16.50;99.90
1800;DHT22;919;48.274;12.292;2022-07-06T00:07:03;16.50;99.90
1800;DHT22;919;48.274;12.292;2022-07-06T00:09:31;16.50;99.90
1800;DHT22;919;48.274;12.292;2022-07-06T00:11:58;16.50;99.90
1800;DHT22;919;48.274;12.292;2022-07-06T00:14:25;16.50;99.90
1800;DHT22;919;48.274;12.292;2022-07-06T00:16:52;16.40;99.90
1800;DHT22;919;48.274;12.292;2022-07-06T00:19:18;16.40;99.90
1800;DHT22;919;48.274;12.292;2022-07-06T00:21:45;16.40;99.90
1800;DHT22;919;48.274;12.292;2022-07-06T00:24:12;16.30;99.90
1800;DHT22;919;48.274;12.292;2022-07-06T00:26:40;16.20;99.90
1800;DHT22;919;48.274;12.292;2022-07-06T00:29:07;16.20;99.90
1800;DHT22;919;48.274;12.292;2022-07-06T00:31:33;16.20;99.90
1800;DHT22;919;48.274;12.292;2022-07-06T00:34:00;16.10;99.90
1800;DHT22;919;48.274;12.292;2022-07-06T00:36:27;16.10;99.90
1800;DHT22;919;48.274;12.292;2022-07-06T00:38:54;16.20;99.90
1800;DHT22;919;48.274;12.292;2022-07-06T00:41:20;16.10;99.90
1800;DHT22;919;48.274;12.292;2022-07-06T00:43:51;16.10;99.90
1800;DHT22;919;48.274;12.292;2022-07-06T00:46:18;16.10;99.90
1800;DHT22;919;48.274;12.292;2022-07-06T00:48:45;16.10;99.90
1800;DHT22;919;48.274;12.292;2022-07-06T00:51:12;16.10;99.90
1800;DHT22;919;48.274;12.292;2022-07-06T00:53:40;16.00;99.90
1800;DHT22;919;48.274;12.292;2022-07-06T00:56:07;15.80;99.90
1800;DHT22;919;48.274;12.292;2022-07-06T00:58:34;15.70;99.90
1800;DHT22;919;48.274;12.292;2022-07-06T01:01:02;15.70;99.90
1800;DHT22;919;48.274;12.292;2022-07-06T01:03:29;15.80;99.90
1800;DHT22;919;48.274;12.292;2022-07-06T01:05:56;15.90;99.90
1800;DHT22;919;48.274;12.292;2022-07-06T01:08:23;15.90;99.90
1800;DHT22;919;48.274;12.292;2022-07-06T01:10:50;15.70;99.90
1800;DHT22;919;48.274;12.292;2022-07-06T01:13:17;15.60;99.90
1800;DHT22;919;48.274;12.292;2022-07-06T01:15:44;15.60;99.90
1800;DHT22;919;48.274;12.292;2022-07-06T01:18:12;15.60;99.90
1800;DHT22;919;48.274;12.292;2022-07-06T01:20:40;15.50;99.90
1800;DHT22;919;48.274;12.292;2022-07-06T01:23:07;15.60;99.90
1800;DHT22;919;48.274;12.292;2022-07-06T01:25:33;15.50;99.90
1800;DHT22;919;48.274;12.292;2022-07-06T01:28:01;15.40;99.90
1800;DHT22;919;48.274;12.292;2022-07-06T01:30:28;15.40;99.90
1800;DHT22;919;48.274;12.292;2022-07-06T01:32:54;15.40;99.90
1800;DHT22;919;48.274;12.292;2022-07-06T01:35:21;15.40;99.90
1800;DHT22;919;48.274;12.292;2022-07-06T01:37:50;15.30;99.90
1800;DHT22;919;48.274;12.292;2022-07-06T01:40:16;15.30;99.90
1800;DHT22;919;48.274;12.292;2022-07-06T01:42:43;15.20;99.90
1800;DHT22;919;48.274;12.292;2022-07-06T01:45:10;15.30;99.90
1800;DHT22;919;48.274;12.292;2022-07-06T01:47:37;15.30;99.90
1800;DHT22;919;48.274;12.292;2022-07-06T01:50:06;15.30;99.90
1800;DHT22;919;48.274;12.292;2022-07-06T01:52:33;15.20;99.90
1800;DHT22;919;48.274;12.292;2022-07-06T01:55:01;15.20;99.90
1800;DHT22;919;48.274;12.292;2022-07-06T01:57:27;15.10;99.90
1800;DHT22;919;48.274;12.292;2022-07-06T01:59:54;15.00;99.90
1800;DHT22;919;48.274;12.292;2022-07-06T02:02:21;15.00;99.90
1800;DHT22;919;48.274;12.292;2022-07-06T02:04:47;15.00;99.90
1800;DHT22;919;48.274;12.292;2022-07-06T02:07:14;14.90;99.90
1800;DHT22;919;48.274;12.292;2022-07-06T02:09:41;14.90;99.90
1800;DHT22;919;48.274;12.292;2022-07-06T02:12:09;15.00;99.90
1800;DHT22;919;48.274;12.292;2022-07-06T02:14:36;15.00;99.90
1800;DHT22;919;48.274;12.292;2022-07-06T02:17:03;15.00;99.90
1800;DHT22;919;48.274;12.292;2022-07-06T02:19:30;14.90;99.90
1800;DHT22;919;48.274;12.292;2022-07-06T02:21:56;15.00;99.90
1800;DHT22;919;48.274;12.292;2022-07-06T02:24:23;15.00;99.90
1800;DHT22;919;48.274;12.292;2022-07-06T02:26:50;15.00;99.90
1800;DHT22;919;48.274;12.292;2022-07-06T02:29:18;15.10;99.90
1800;DHT22;919;48.274;12.292;2022-07-06T02:31:45;15.00;99.90
1800;DHT22;919;48.274;12.292;2022-07-06T02:34:11;14.90;99.90
1800;DHT22;919;48.274;12.292;2022-07-06T02:36:38;14.90;99.90
1800;DHT22;919;48.274;12.292;2022-07-06T02:39:05;14.90;99.90
1800;DHT22;919;48.274;12.292;2022-07-06T02:41:32;14.90;99.90
1800;DHT22;919;48.274;12.292;2022-07-06T02:43:58;14.90;99.90
1800;DHT22;919;48.274;12.292;2022-07-06T02:46:26;14.80;99.90
1800;DHT22;919;48.274;12.292;2022-07-06T02:48:53;14.70;99.90
1800;DHT22;919;48.274;12.292;2022-07-06T02:51:20;14.70;99.90
1800;DHT22;919;48.274;12.292;2022-07-06T02:53:46;14.70;99.90
1800;DHT22;919;48.274;12.292;2022-07-06T02:56:13;14.80;99.90
1800;DHT22;919;48.274;12.292;2022-07-06T02:58:40;14.80;99.90
1800;DHT22;919;48.274;12.292;2022-07-06T03:01:06;14.70;99.90
1800;DHT22;919;48.274;12.292;2022-07-06T03:03:35;14.60;99.90
1800;DHT22;919;48.274;12.292;2022-07-06T03:06:01;14.60;99.90
1800;DHT22;919;48.274;12.292;2022-07-06T03:08:28;14.70;99.90
1800;DHT22;919;48.274;12.292;2022-07-06T03:10:55;14.80;99.90
1800;DHT22;919;48.274;12.292;2022-07-06T03:13:21;14.80;99.90
1800;DHT22;919;48.274;12.292;2022-07-06T03:15:48;14.80;99.90
1800;DHT22;919;48.274;12.292;2022-07-06T03:18:15;14.90;99.90
1800;DHT22;919;48.274;12.292;2022-07-06T03:20:43;14.80;99.90
1800;DHT22;919;48.274;12.292;2022-07-06T03:23:09;14.70;99.90
1800;DHT22;919;48.274;12.292;2022-07-06T03:25:36;14.70;99.90
1800;DHT22;919;48.274;12.292;2022-07-06T03:28:03;14.60;99.90
1800;DHT22;919;48.274;12.292;2022-07-06T03:30:30;14.70;99.90
1800;DHT22;919;48.274;12.292;2022-07-06T03:32:57;14.70;99.90
1800;DHT22;919;48.274;12.292;2022-07-06T03:35:24;14.70;99.90
1800;DHT22;919;48.274;12.292;2022-07-06T03:37:52;14.60;99.90
1800;DHT22;919;48.274;12.292;2022-07-06T03:40:18;14.50;99.90
1800;DHT22;919;48.274;12.292;2022-07-06T03:42:45;14.50;99.90
1800;DHT22;919;48.274;12.292;2022-07-06T03:45:12;14.60;99.90
1800;DHT22;919;48.274;12.292;2022-07-06T03:47:39;14.60;99.90
1800;DHT22;919;48.274;12.292;2022-07-06T03:50:07;14.70;99.90
1800;DHT22;919;48.274;12.292;2022-07-06T03:52:34;14.70;99.90
1800;DHT22;919;48.274;12.292;2022-07-06T03:55:07;14.80;99.90
1800;DHT22;919;48.274;12.292;2022-07-06T03:57:34;14.90;99.90
1800;DHT22;919;48.274;12.292;2022-07-06T04:00:01;15.00;99.90
1800;DHT22;919;48.274;12.292;2022-07-06T04:02:27;15.20;99.90
1800;DHT22;919;48.274;12.292;2022-07-06T04:04:54;15.70;99.90
1800;DHT22;919;48.274;12.292;2022-07-06T04:07:21;16.10;99.90
1800;DHT22;919;48.274;12.292;2022-07-06T04:09:47;16.50;99.90
1800;DHT22;919;48.274;12.292;2022-07-06T04:12:15;16.80;99.90
1800;DHT22;919;48.274;12.292;2022-07-06T04:14:42;17.00;99.90
1800;DHT22;919;48.274;12.292;2022-07-06T04:17:09;17.40;99.90
1800;DHT22;919;48.274;12.292;2022-07-06T04:19:50;17.60;99.90
1800;DHT22;919;48.274;12.292;2022-07-06T04:22:16;17.90;99.90
1800;DHT22;919;48.274;12.292;2022-07-06T04:24:43;18.10;99.90
1800;DHT22;919;48.274;12.292;2022-07-06T04:27:10;18.30;99.90
1800;DHT22;919;48.274;12.292;2022-07-06T04:29:38;18.40;99.90
1800;DHT22;919;48.274;12.292;2022-07-06T04:32:05;18.40;99.90
1800;DHT22;919;48.274;12.292;2022-07-06T04:34:32;18.30;99.90
1800;DHT22;919;48.274;12.292;2022-07-06T04:36:59;18.10;99.90
1800;DHT22;919;48.274;12.292;2022-07-06T04:39:26;17.90;99.90
1800;DHT22;919;48.274;12.292;2022-07-06T04:41:53;17.70;99.90
1800;DHT22;919;48.274;12.292;2022-07-06T04:44:19;17.60;99.90
1800;DHT22;919;48.274;12.292;2022-07-06T04:46:47;17.40;99.90
1800;DHT22;919;48.274;12.292;2022-07-06T04:49:14;17.30;99.90
1800;DHT22;919;48.274;12.292;2022-07-06T04:51:41;17.40;99.90
1800;DHT22;919;48.274;12.292;2022-07-06T04:54:07;17.50;99.90
1800;DHT22;919;48.274;12.292;2022-07-06T04:56:34;17.60;99.90
1800;DHT22;919;48.274;12.292;2022-07-06T04:59:01;17.70;99.90
1800;DHT22;919;48.274;12.292;2022-07-06T05:01:28;17.70;99.90
1800;DHT22;919;48.274;12.292;2022-07-06T05:03:56;17.80;99.90
1800;DHT22;919;48.274;12.292;2022-07-06T05:06:22;17.90;99.90
1800;DHT22;919;48.274;12.292;2022-07-06T05:08:49;17.90;99.90
1800;DHT22;919;48.274;12.292;2022-07-06T05:11:16;18.00;99.90
1800;DHT22;919;48.274;12.292;2022-07-06T05:13:42;18.10;99.90
1800;DHT22;919;48.274;12.292;2022-07-06T05:16:09;18.20;99.90
1800;DHT22;919;48.274;12.292;2022-07-06T05:18:36;18.30;99.90
1800;DHT22;919;48.274;12.292;2022-07-06T05:21:04;18.50;99.90
1800;DHT22;919;48.274;12.292;2022-07-06T05:23:31;18.50;99.90
1800;DHT22;919;48.274;12.292;2022-07-06T05:25:58;18.60;99.90
1800;DHT22;919;48.274;12.292;2022-07-06T05:28:25;18.70;99.90
1800;DHT22;919;48.274;12.292;2022-07-06T05:30:51;18.90;99.90
1800;DHT22;919;48.274;12.292;2022-07-06T05:33:18;19.00;99.90
1800;DHT22;919;48.274;12.292;2022-07-06T05:35:45;19.10;99.90
1800;DHT22;919;48.274;12.292;2022-07-06T05:38:13;19.20;99.90
1800;DHT22;919;48.274;12.292;2022-07-06T05:40:40;19.30;99.90
1800;DHT22;919;48.274;12.292;2022-07-06T05:43:07;19.30;99.90
1800;DHT22;919;48.274;12.292;2022-07-06T05:45:33;19.40;99.90
1800;DHT22;919;48.274;12.292;2022-07-06T05:48:00;19.50;99.90
1800;DHT22;919;48.274;12.292;2022-07-06T05:50:45;19.50;99.90
1800;DHT22;919;48.274;12.292;2022-07-06T05:53:13;19.70;99.90
1800;DHT22;919;48.274;12.292;2022-07-06T05:55:39;19.80;99.90
1800;DHT22;919;48.274;12.292;2022-07-06T05:58:06;19.80;99.90
1800;DHT22;919;48.274;12.292;2022-07-06T06:00:33;19.80;99.90
1800;DHT22;919;48.274;12.292;2022-07-06T06:03:00;19.80;99.90
1800;DHT22;919;48.274;12.292;2022-07-06T06:05:26;19.80;99.90
1800;DHT22;919;48.274;12.292;2022-07-06T06:07:53;19.80;99.90
1800;DHT22;919;48.274;12.292;2022-07-06T06:10:21;19.90;99.90
1800;DHT22;919;48.274;12.292;2022-07-06T06:12:49;19.90;99.90
1800;DHT22;919;48.274;12.292;2022-07-06T06:15:16;19.90;99.90
1800;DHT22;919;48.274;12.292;2022-07-06T06:17:43;19.90;99.90
1800;DHT22;919;48.274;12.292;2022-07-06T06:20:11;19.90;99.90
1800;DHT22;919;48.274;12.292;2022-07-06T06:22:49;20.00;99.90
1800;DHT22;919;48.274;12.292;2022-07-06T06:25:17;20.00;99.90
1800;DHT22;919;48.274;12.292;2022-07-06T06:27:45;20.00;99.90
1800;DHT22;919;48.274;12.292;2022-07-06T06:30:13;19.80;99.90
1800;DHT22;919;48.274;12.292;2022-07-06T06:32:40;19.90;99.90
1800;DHT22;919;48.274;12.292;2022-07-06T06:35:07;20.00;99.90
1800;DHT22;919;48.274;12.292;2022-07-06T06:37:34;20.00;99.90
1800;DHT22;919;48.274;12.292;2022-07-06T06:40:01;20.00;99.90
1800;DHT22;919;48.274;12.292;2022-07-06T06:42:28;20.00;99.90
1800;DHT22;919;48.274;12.292;2022-07-06T06:44:56;20.10;99.90
1800;DHT22;919;48.274;12.292;2022-07-06T06:47:22;20.20;99.90
1800;DHT22;919;48.274;12.292;2022-07-06T06:49:49;20.30;99.90
1800;DHT22;919;48.274;12.292;2022-07-06T06:52:16;20.40;99.90
1800;DHT22;919;48.274;12.292;2022-07-06T06:54:43;20.40;99.90
1800;DHT22;919;48.274;12.292;2022-07-06T06:57:10;20.50;99.90
1800;DHT22;919;48.274;12.292;2022-07-06T06:59:36;20.50;99.90
1800;DHT22;919;48.274;12.292;2022-07-06T07:02:04;20.60;99.90
1800;DHT22;919;48.274;12.292;2022-07-06T07:04:31;20.70;99.90
1800;DHT22;919;48.274;12.292;2022-07-06T07:06:58;20.70;99.90
1800;DHT22;919;48.274;12.292;2022-07-06T07:09:24;20.90;99.90
1800;DHT22;919;48.274;12.292;2022-07-06T07:11:51;21.00;99.90
1800;DHT22;919;48.274;12.292;2022-07-06T07:14:18;21.00;99.90
1800;DHT22;919;48.274;12.292;2022-07-06T07:16:45;21.10;99.90
1800;DHT22;919;48.274;12.292;2022-07-06T07:19:13;20.90;99.90
1800;DHT22;919;48.274;12.292;2022-07-06T07:21:39;20.80;99.90
1800;DHT22;919;48.274;12.292;2022-07-06T07:24:07;20.80;99.90
1800;DHT22;919;48.274;12.292;2022-07-06T07:26:33;20.70;99.90
1800;DHT22;919;48.274;12.292;2022-07-06T07:29:00;20.70;99.90
1800;DHT22;919;48.274;12.292;2022-07-06T07:31:27;20.80;99.90
1800;DHT22;919;48.274;12.292;2022-07-06T07:33:54;20.90;99.90
1800;DHT22;919;48.274;12.292;2022-07-06T07:36:24;21.10;99.90
1800;DHT22;919;48.274;12.292;2022-07-06T07:38:50;21.10;99.90
1800;DHT22;919;48.274;12.292;2022-07-06T07:41:17;21.10;99.90
1800;DHT22;919;48.274;12.292;2022-07-06T07:43:44;21.20;99.90
1800;DHT22;919;48.274;12.292;2022-07-06T07:46:11;21.20;99.90
1800;DHT22;919;48.274;12.292;2022-07-06T07:48:37;21.20;99.90
1800;DHT22;919;48.274;12.292;2022-07-06T07:51:04;21.30;99.90
1800;DHT22;919;48.274;12.292;2022-07-06T07:53:32;21.50;99.90
1800;DHT22;919;48.274;12.292;2022-07-06T07:55:59;21.50;99.90
1800;DHT22;919;48.274;12.292;2022-07-06T07:58:26;21.40;99.90
1800;DHT22;919;48.274;12.292;2022-07-06T08:00:53;21.50;99.90
1800;DHT22;919;48.274;12.292;2022-07-06T08:03:20;21.50;99.90
1800;DHT22;919;48.274;12.292;2022-07-06T08:05:46;21.60;99.90
1800;DHT22;919;48.274;12.292;2022-07-06T08:08:13;21.70;99.90
1800;DHT22;919;48.274;12.292;2022-07-06T08:10:41;21.70;99.90
1800;DHT22;919;48.274;12.292;2022-07-06T08:13:08;21.70;99.90
1800;DHT22;919;48.274;12.292;2022-07-06T08:15:36;21.60;99.90
1800;DHT22;919;48.274;12.292;2022-07-06T08:18:03;21.80;99.90
1800;DHT22;919;48.274;12.292;2022-07-06T08:20:30;21.90;99.90
1800;DHT22;919;48.274;12.292;2022-07-06T08:22:56;22.00;99.90
1800;DHT22;919;48.274;12.292;2022-07-06T08:25:23;22.00;99.90
1800;DHT22;919;48.274;12.292;2022-07-06T08:27:51;22.20;99.90
1800;DHT22;919;48.274;12.292;2022-07-06T08:30:18;22.30;99.90
1800;DHT22;919;48.274;12.292;2022-07-06T08:32:45;22.40;99.90
1800;DHT22;919;48.274;12.292;2022-07-06T08:35:12;22.30;99.90
1800;DHT22;919;48.274;12.292;2022-07-06T08:37:39;22.30;99.90
1800;DHT22;919;48.274;12.292;2022-07-06T08:40:07;22.30;99.90
1800;DHT22;919;48.274;12.292;2022-07-06T08:42:34;22.40;99.90
1800;DHT22;919;48.274;12.292;2022-07-06T08:45:06;22.30;99.90
1800;DHT22;919;48.274;12.292;2022-07-06T08:47:35;22.30;99.90
1800;DHT22;919;48.274;12.292;2022-07-06T08:50:04;22.40;99.90
1800;DHT22;919;48.274;12.292;2022-07-06T08:52:31;22.50;99.90
1800;DHT22;919;48.274;12.292;2022-07-06T08:54:58;22.60;99.90
1800;DHT22;919;48.274;12.292;2022-07-06T08:57:26;22.80;99.90
1800;DHT22;919;48.274;12.292;2022-07-06T08:59:52;22.90;99.90
1800;DHT22;919;48.274;12.292;2022-07-06T09:02:24;22.80;99.90
1800;DHT22;919;48.274;12.292;2022-07-06T09:04:54;22.90;99.90
1800;DHT22;919;48.274;12.292;2022-07-06T09:07:22;22.90;99.90
1800;DHT22;919;48.274;12.292;2022-07-06T09:09:51;23.00;99.90
1800;DHT22;919;48.274;12.292;2022-07-06T09:12:18;23.10;99.90
1800;DHT22;919;48.274;12.292;2022-07-06T09:14:45;23.10;99.90
1800;DHT22;919;48.274;12.292;2022-07-06T09:17:12;23.00;99.90
1800;DHT22;919;48.274;12.292;2022-07-06T09:19:40;23.20;99.90
1800;DHT22;919;48.274;12.292;2022-07-06T09:22:07;23.30;99.90
1800;DHT22;919;48.274;12.292;2022-07-06T09:24:41;23.40;99.90
1800;DHT22;919;48.274;12.292;2022-07-06T09:27:15;23.50;99.90
1800;DHT22;919;48.274;12.292;2022-07-06T09:29:42;23.60;99.90
1800;DHT22;919;48.274;12.292;2022-07-06T09:32:09;23.70;99.90
1800;DHT22;919;48.274;12.292;2022-07-06T09:34:45;23.70;99.90
1800;DHT22;919;48.274;12.292;2022-07-06T09:37:12;23.90;99.90
1800;DHT22;919;48.274;12.292;2022-07-06T09:39:40;24.10;99.90
1800;DHT22;919;48.274;12.292;2022-07-06T09:42:07;24.30;99.90
1800;DHT22;919;48.274;12.292;2022-07-06T09:44:35;24.20;99.90
1800;DHT22;919;48.274;12.292;2022-07-06T09:47:04;24.20;99.90
1800;DHT22;919;48.274;12.292;2022-07-06T09:49:31;24.40;99.90
1800;DHT22;919;48.274;12.292;2022-07-06T09:52:00;24.40;99.90
1800;DHT22;919;48.274;12.292;2022-07-06T09:54:28;24.50;99.90
1800;DHT22;919;48.274;12.292;2022-07-06T09:56:56;24.50;99.90
1800;DHT22;919;48.274;12.292;2022-07-06T09:59:24;24.60;99.90
1800;DHT22;919;48.274;12.292;2022-07-06T10:01:52;24.70;99.90
1800;DHT22;919;48.274;12.292;2022-07-06T10:04:20;25.00;99.90
1800;DHT22;919;48.274;12.292;2022-07-06T10:06:48;25.10;99.90
1800;DHT22;919;48.274;12.292;2022-07-06T10:09:18;25.30;99.90
1800;DHT22;919;48.274;12.292;2022-07-06T10:11:47;25.30;99.90
1800;DHT22;919;48.274;12.292;2022-07-06T10:14:17;25.40;99.90
1800;DHT22;919;48.274;12.292;2022-07-06T10:16:46;25.60;99.90
1800;DHT22;919;48.274;12.292;2022-07-06T10:19:14;25.40;99.90
1800;DHT22;919;48.274;12.292;2022-07-06T10:21:41;25.40;99.90
1800;DHT22;919;48.274;12.292;2022-07-06T10:24:09;25.50;99.90
1800;DHT22;919;48.274;12.292;2022-07-06T10:26:39;25.50;99.90
1800;DHT22;919;48.274;12.292;2022-07-06T10:29:06;25.60;99.90
1800;DHT22;919;48.274;12.292;2022-07-06T10:31:35;25.50;99.90
1800;DHT22;919;48.274;12.292;2022-07-06T10:34:06;25.50;99.90
1800;DHT22;919;48.274;12.292;2022-07-06T10:36:38;25.50;99.90
1800;DHT22;919;48.274;12.292;2022-07-06T10:39:05;25.60;99.90
1800;DHT22;919;48.274;12.292;2022-07-06T10:41:53;25.80;99.90
1800;DHT22;919;48.274;12.292;2022-07-06T10:44:22;25.90;99.90
1800;DHT22;919;48.274;12.292;2022-07-06T10:46:53;26.10;99.90
1800;DHT22;919;48.274;12.292;2022-07-06T10:49:21;26.20;99.90
1800;DHT22;919;48.274;12.292;2022-07-06T10:51:48;26.30;99.90
1800;DHT22;919;48.274;12.292;2022-07-06T10:54:16;26.50;99.90
1800;DHT22;919;48.274;12.292;2022-07-06T10:56:46;26.50;99.90
1800;DHT22;919;48.274;12.292;2022-07-06T10:59:15;26.70;99.90
1800;DHT22;919;48.274;12.292;2022-07-06T11:02:13;26.70;99.90
1800;DHT22;919;48.274;12.292;2022-07-06T11:04:40;26.90;99.90
1800;DHT22;919;48.274;12.292;2022-07-06T11:07:09;27.20;99.90
1800;DHT22;919;48.274;12.292;2022-07-06T11:09:36;27.40;99.90
1800;DHT22;919;48.274;12.292;2022-07-06T11:12:12;27.20;99.90
1800;DHT22;919;48.274;12.292;2022-07-06T11:14:42;27.30;99.90
1800;DHT22;919;48.274;12.292;2022-07-06T11:17:10;27.30;99.90
1800;DHT22;919;48.274;12.292;2022-07-06T11:19:37;27.20;99.90
1800;DHT22;919;48.274;12.292;2022-07-06T11:22:08;27.00;99.90
1800;DHT22;919;48.274;12.292;2022-07-06T11:24:37;27.10;99.90
1800;DHT22;919;48.274;12.292;2022-07-06T11:27:05;27.10;99.90
1800;DHT22;919;48.274;12.292;2022-07-06T11:29:33;27.20;99.90
1800;DHT22;919;48.274;12.292;2022-07-06T11:32:04;27.40;99.90
1800;DHT22;919;48.274;12.292;2022-07-06T11:34:32;27.40;99.90
1800;DHT22;919;48.274;12.292;2022-07-06T11:37:01;27.20;99.90
1800;DHT22;919;48.274;12.292;2022-07-06T11:39:29;27.50;99.90
1800;DHT22;919;48.274;12.292;2022-07-06T11:41:56;27.60;99.90
1800;DHT22;919;48.274;12.292;2022-07-06T11:44:23;27.80;99.90
1800;DHT22;919;48.274;12.292;2022-07-06T11:46:50;28.00;99.90
1800;DHT22;919;48.274;12.292;2022-07-06T11:49:19;28.20;99.90
1800;DHT22;919;48.274;12.292;2022-07-06T11:51:46;28.00;99.90
1800;DHT22;919;48.274;12.292;2022-07-06T11:54:14;28.20;99.90
1800;DHT22;919;48.274;12.292;2022-07-06T11:56:46;28.50;99.90
1800;DHT22;919;48.274;12.292;2022-07-06T11:59:15;28.80;99.90
1800;DHT22;919;48.274;12.292;2022-07-06T12:01:42;28.70;99.90
1800;DHT22;919;48.274;12.292;2022-07-06T12:04:10;28.90;99.90
1800;DHT22;919;48.274;12.292;2022-07-06T12:06:38;28.70;99.90
1800;DHT22;919;48.274;12.292;2022-07-06T12:09:05;28.50;99.90
1800;DHT22;919;48.274;12.292;2022-07-06T12:11:34;28.10;99.90
1800;DHT22;919;48.274;12.292;2022-07-06T12:14:03;28.20;99.90
1800;DHT22;919;48.274;12.292;2022-07-06T12:16:31;28.30;99.90
1800;DHT22;919;48.274;12.292;2022-07-06T12:19:00;28.40;99.90
1800;DHT22;919;48.274;12.292;2022-07-06T12:21:28;28.40;99.90
1800;DHT22;919;48.274;12.292;2022-07-06T12:23:56;28.30;99.90
1800;DHT22;919;48.274;12.292;2022-07-06T12:26:24;27.70;99.90
1800;DHT22;919;48.274;12.292;2022-07-06T12:29:01;27.00;99.90
1800;DHT22;919;48.274;12.292;2022-07-06T12:31:32;26.60;99.90
1800;DHT22;919;48.274;12.292;2022-07-06T12:33:59;26.60;99.90
1800;DHT22;919;48.274;12.292;2022-07-06T12:36:26;26.80;99.90
1800;DHT22;919;48.274;12.292;2022-07-06T12:38:53;26.80;99.90
1800;DHT22;919;48.274;12.292;2022-07-06T12:41:32;26.80;99.90
1800;DHT22;919;48.274;12.292;2022-07-06T12:44:04;27.20;99.90
1800;DHT22;919;48.274;12.292;2022-07-06T12:46:34;27.40;99.90
1800;DHT22;919;48.274;12.292;2022-07-06T12:49:04;27.40;99.90
1800;DHT22;919;48.274;12.292;2022-07-06T12:51:59;27.10;99.90
1800;DHT22;919;48.274;12.292;2022-07-06T12:54:28;26.90;99.90
1800;DHT22;919;48.274;12.292;2022-07-06T12:57:04;26.70;99.90
1800;DHT22;919;48.274;12.292;2022-07-06T12:59:34;26.60;99.90
1800;DHT22;919;48.274;12.292;2022-07-06T13:02:01;26.70;99.90
1800;DHT22;919;48.274;12.292;2022-07-06T13:04:29;26.60;99.90
1800;DHT22;919;48.274;12.292;2022-07-06T13:06:58;26.70;99.90
1800;DHT22;919;48.274;12.292;2022-07-06T13:09:25;27.10;99.90
1800;DHT22;919;48.274;12.292;2022-07-06T13:11:51;27.50;99.90
1800;DHT22;919;48.274;12.292;2022-07-06T13:14:20;27.80;99.90
1800;DHT22;919;48.274;12.292;2022-07-06T13:16:47;28.00;99.90
1800;DHT22;919;48.274;12.292;2022-07-06T13:19:15;28.00;99.90
1800;DHT22;919;48.274;12.292;2022-07-06T13:21:41;28.30;99.90
1800;DHT22;919;48.274;12.292;2022-07-06T13:24:10;28.60;99.90
1800;DHT22;919;48.274;12.292;2022-07-06T13:26:36;28.60;99.90
1800;DHT22;919;48.274;12.292;2022-07-06T13:29:04;28.60;99.90
1800;DHT22;919;48.274;12.292;2022-07-06T13:31:32;28.60;99.90
1800;DHT22;919;48.274;12.292;2022-07-06T13:33:58;28.70;99.90
1800;DHT22;919;48.274;12.292;2022-07-06T13:36:25;28.70;99.90
1800;DHT22;919;48.274;12.292;2022-07-06T13:38:52;28.70;99.90
1800;DHT22;919;48.274;12.292;2022-07-06T13:41:19;28.40;99.90
1800;DHT22;919;48.274;12.292;2022-07-06T13:43:45;28.10;99.90
1800;DHT22;919;48.274;12.292;2022-07-06T13:46:12;28.00;99.90
1800;DHT22;919;48.274;12.292;2022-07-06T13:48:40;28.10;99.90
1800;DHT22;919;48.274;12.292;2022-07-06T13:51:07;28.10;99.90
1800;DHT22;919;48.274;12.292;2022-07-06T13:53:34;28.30;99.90
1800;DHT22;919;48.274;12.292;2022-07-06T13:56:01;28.60;99.90
1800;DHT22;919;48.274;12.292;2022-07-06T13:58:28;28.80;99.90
1800;DHT22;919;48.274;12.292;2022-07-06T14:00:54;28.60;99.90
1800;DHT22;919;48.274;12.292;2022-07-06T14:03:21;28.30;99.90
1800;DHT22;919;48.274;12.292;2022-07-06T14:05:54;27.90;99.90
1800;DHT22;919;48.274;12.292;2022-07-06T14:08:21;27.50;99.90
1800;DHT22;919;48.274;12.292;2022-07-06T14:10:48;27.80;99.90
1800;DHT22;919;48.274;12.292;2022-07-06T14:13:15;28.00;99.90
1800;DHT22;919;48.274;12.292;2022-07-06T14:15:42;28.10;99.90
1800;DHT22;919;48.274;12.292;2022-07-06T14:18:09;28.20;99.90
1800;DHT22;919;48.274;12.292;2022-07-06T14:20:36;28.60;99.90
1800;DHT22;919;48.274;12.292;2022-07-06T14:23:04;28.60;99.90
1800;DHT22;919;48.274;12.292;2022-07-06T14:25:31;28.60;99.90
1800;DHT22;919;48.274;12.292;2022-07-06T14:27:58;28.30;99.90
1800;DHT22;919;48.274;12.292;2022-07-06T14:30:25;28.00;99.90
1800;DHT22;919;48.274;12.292;2022-07-06T14:32:51;27.90;99.90
1800;DHT22;919;48.274;12.292;2022-07-06T14:35:18;27.90;99.90
1800;DHT22;919;48.274;12.292;2022-07-06T14:37:47;28.10;99.90
1800;DHT22;919;48.274;12.292;2022-07-06T14:40:15;28.40;99.90
1800;DHT22;919;48.274;12.292;2022-07-06T14:42:42;28.80;99.90
1800;DHT22;919;48.274;12.292;2022-07-06T14:45:10;28.90;99.90
1800;DHT22;919;48.274;12.292;2022-07-06T14:47:36;29.00;99.90
1800;DHT22;919;48.274;12.292;2022-07-06T14:50:04;28.60;99.90
1800;DHT22;919;48.274;12.292;2022-07-06T14:52:31;28.40;99.90
1800;DHT22;919;48.274;12.292;2022-07-06T14:54:57;28.20;99.90
1800;DHT22;919;48.274;12.292;2022-07-06T14:57:26;28.20;99.90
1800;DHT22;919;48.274;12.292;2022-07-06T14:59:53;28.20;99.90
1800;DHT22;919;48.274;12.292;2022-07-06T15:02:19;28.40;99.90
1800;DHT22;919;48.274;12.292;2022-07-06T15:04:46;28.60;99.90
1800;DHT22;919;48.274;12.292;2022-07-06T15:07:13;28.70;99.90
1800;DHT22;919;48.274;12.292;2022-07-06T15:09:40;28.50;99.90
1800;DHT22;919;48.274;12.292;2022-07-06T15:12:07;28.50;99.90
1800;DHT22;919;48.274;12.292;2022-07-06T15:14:36;28.40;99.90
1800;DHT22;919;48.274;12.292;2022-07-06T15:17:03;28.30;99.90
1800;DHT22;919;48.274;12.292;2022-07-06T15:19:30;28.20;99.90
1800;DHT22;919;48.274;12.292;2022-07-06T15:21:57;28.10;99.90
1800;DHT22;919;48.274;12.292;2022-07-06T15:24:23;28.00;99.90
1800;DHT22;919;48.274;12.292;2022-07-06T15:26:50;28.00;99.90
1800;DHT22;919;48.274;12.292;2022-07-06T15:29:17;28.20;99.90
1800;DHT22;919;48.274;12.292;2022-07-06T15:31:45;28.40;99.90
1800;DHT22;919;48.274;12.292;2022-07-06T15:34:12;28.20;99.90
1800;DHT22;919;48.274;12.292;2022-07-06T15:36:38;28.20;99.90
1800;DHT22;919;48.274;12.292;2022-07-06T15:39:05;28.40;99.90
1800;DHT22;919;48.274;12.292;2022-07-06T15:41:32;28.70;99.90
1800;DHT22;919;48.274;12.292;2022-07-06T15:43:59;28.50;99.90
1800;DHT22;919;48.274;12.292;2022-07-06T15:46:26;28.40;99.90
1800;DHT22;919;48.274;12.292;2022-07-06T15:48:54;28.30;99.90
1800;DHT22;919;48.274;12.292;2022-07-06T15:51:21;28.30;99.60
1800;DHT22;919;48.274;12.292;2022-07-06T15:53:47;28.50;99.90
1800;DHT22;919;48.274;12.292;2022-07-06T15:56:15;28.60;99.90
1800;DHT22;919;48.274;12.292;2022-07-06T15:58:42;28.50;99.90
1800;DHT22;919;48.274;12.292;2022-07-06T16:01:09;28.50;99.90
1800;DHT22;919;48.274;12.292;2022-07-06T16:03:36;28.60;99.90
1800;DHT22;919;48.274;12.292;2022-07-06T16:06:05;28.60;99.90